Time;durP1;ratioP1;P1;durP2;ratioP2;P2;SDS_P1;SDS_P2;PMS_P1;PMS_P2;Temp;Humidity;BMP_temperature;BMP_pressure;BME280_temperature;BME280_humidity;BME280_pressure;Samples;Min_cycle;Max_cycle;Signal;HPM_P1;HPM_P2
2022/05/07 00:02:51;;;;;;;20.27;11.00;;;;;;;;;;5030736;28;20576;-80
2022/05/07 00:06:15;;;;;;;15.70;10.00;;;;;;;;;;5029230;28;20465;-80
2022/05/07 00:09:36;;;;;;;16.90;9.47;;;;;;;;;;5025990;28;20511;-81
2022/05/07 00:12:40;;;;;;;17.17;9.80;;;;;;;;;;5031334;28;20475;-80
2022/05/07 00:19:22;;;;;;;14.60;8.73;;;;;;;;;;5008920;28;20445;-81
2022/05/07 00:22:54;;;;;;;16.23;8.63;;;;;;;;;;5008744;28;20484;-80
2022/05/07 00:26:43;;;;;;;16.00;9.50;;;;;;;;;;5007140;28;21331;-80
2022/05/07 00:30:18;;;;;;;15.27;8.73;;;;;;;;;;5007167;28;20979;-79
2022/05/07 00:34:19;;;;;;;15.20;8.17;;;;;;;;;;4987810;28;20451;-80
2022/05/07 00:38:22;;;;;;;13.93;8.83;;;;;;;;;;4990569;28;20890;-80
2022/05/07 00:42:23;;;;;;;13.07;8.40;;;;;;;;;;4990854;28;20473;-80
2022/05/07 00:46:27;;;;;;;17.07;9.13;;;;;;;;;;4978844;28;20484;-80
2022/05/07 00:54:26;;;;;;;16.87;8.83;;;;;;;;;;4951344;28;20443;-80
2022/05/07 00:58:19;;;;;;;15.70;7.93;;;;;;;;;;4929569;29;20881;-80
2022/05/07 01:06:19;;;;;;;18.97;9.47;;;;;;;;;;4970919;28;20445;-80
2022/05/07 01:14:14;;;;;;;15.17;9.20;;;;;;;;;;4933089;29;20448;-81
2022/05/07 01:18:21;;;;;;;16.30;9.77;;;;;;;;;;4933189;29;20427;-80
2022/05/07 01:22:33;;;;;;;18.63;9.00;;;;;;;;;;4949717;29;20438;-81
2022/05/07 01:30:55;;;;;;;15.83;8.83;;;;;;;;;;4953620;28;21103;-80
2022/05/07 01:51:09;;;;;;;12.90;6.77;;;;;;;;;;5016580;28;20601;-81
2022/05/07 01:55:13;;;;;;;15.70;7.47;;;;;;;;;;4995553;28;20438;-81
2022/05/07 01:58:59;;;;;;;16.10;8.43;;;;;;;;;;4994794;28;20435;-80
2022/05/07 02:02:50;;;;;;;15.83;9.37;;;;;;;;;;4994616;28;21023;-80
2022/05/07 02:06:05;;;;;;;15.67;8.73;;;;;;;;;;5008035;28;20483;-80
2022/05/07 02:09:33;;;;;;;17.53;8.50;;;;;;;;;;4998604;28;20499;-80
2022/05/07 02:13:20;;;;;;;14.37;8.43;;;;;;;;;;4991442;28;20458;-80
2022/05/07 02:16:31;;;;;;;16.17;8.57;;;;;;;;;;5014752;28;20442;-79
2022/05/07 02:20:31;;;;;;;15.10;8.13;;;;;;;;;;5007925;28;20478;-81
2022/05/07 02:24:23;;;;;;;17.20;8.63;;;;;;;;;;5017906;28;20446;-79
2022/05/07 02:28:14;;;;;;;15.37;8.43;;;;;;;;;;4974421;28;20450;-80
2022/05/07 02:32:05;;;;;;;15.00;8.80;;;;;;;;;;4974360;28;20526;-79
2022/05/07 02:35:45;;;;;;;14.87;7.73;;;;;;;;;;4946387;28;20454;-79
2022/05/07 02:39:40;;;;;;;17.03;8.70;;;;;;;;;;4917091;29;20455;-80
2022/05/07 02:43:11;;;;;;;12.37;8.40;;;;;;;;;;4917277;29;20441;-79
2022/05/07 02:46:22;;;;;;;17.60;9.97;;;;;;;;;;4900968;29;20510;-80
2022/05/07 02:49:25;;;;;;;15.50;8.93;;;;;;;;;;4903102;29;20853;-79
2022/05/07 02:52:18;;;;;;;13.77;8.93;;;;;;;;;;4935921;29;20487;-80
2022/05/07 02:55:05;;;;;;;14.20;8.17;;;;;;;;;;4921566;29;20449;-80
2022/05/07 02:57:52;;;;;;;14.80;7.90;;;;;;;;;;4933829;28;20454;-81
2022/05/07 03:00:39;;;;;;;11.83;6.87;;;;;;;;;;4959923;28;20440;-79
2022/05/07 03:03:21;;;;;;;12.60;7.20;;;;;;;;;;4959241;28;20462;-79
2022/05/07 03:06:05;;;;;;;14.83;6.77;;;;;;;;;;4979964;28;20545;-80
2022/05/07 03:08:48;;;;;;;8.40;5.73;;;;;;;;;;4998029;28;20462;-80
2022/05/07 03:11:28;;;;;;;9.13;6.77;;;;;;;;;;4996322;28;20481;-80
2022/05/07 03:14:16;;;;;;;9.90;6.70;;;;;;;;;;5004946;28;20946;-80
2022/05/07 03:16:57;;;;;;;13.03;7.17;;;;;;;;;;5011711;28;20567;-78
2022/05/07 03:19:41;;;;;;;11.67;8.07;;;;;;;;;;4994757;28;20457;-79
2022/05/07 03:22:10;;;;;;;10.00;6.60;;;;;;;;;;5014897;28;20547;-80
2022/05/07 03:24:41;;;;;;;10.83;6.50;;;;;;;;;;4979352;28;20459;-80
2022/05/07 03:27:08;;;;;;;10.07;5.70;;;;;;;;;;5006738;28;20549;-80
2022/05/07 03:29:36;;;;;;;10.20;5.63;;;;;;;;;;4995384;28;20962;-80
2022/05/07 03:32:09;;;;;;;10.20;6.00;;;;;;;;;;4967664;28;20494;-81
2022/05/07 03:34:43;;;;;;;8.27;5.53;;;;;;;;;;4988515;28;20938;-80
2022/05/07 03:37:10;;;;;;;12.77;5.40;;;;;;;;;;5017544;28;20468;-80
2022/05/07 03:39:38;;;;;;;6.67;4.73;;;;;;;;;;5030976;28;20482;-79
2022/05/07 03:42:05;;;;;;;5.97;4.43;;;;;;;;;;5034799;28;20541;-80
2022/05/07 03:44:33;;;;;;;7.27;4.63;;;;;;;;;;5034494;28;20441;-80
2022/05/07 03:47:07;;;;;;;5.70;4.30;;;;;;;;;;5034328;28;20445;-84
2022/05/07 03:55:52;;;;;;;5.70;3.83;;;;;;;;;;5029333;28;20269;-74
2022/05/07 03:58:29;;;;;;;5.93;3.83;;;;;;;;;;5015446;28;20203;-77
2022/05/07 04:00:57;;;;;;;7.30;3.93;;;;;;;;;;4996661;28;20464;-77
2022/05/07 04:03:28;;;;;;;6.03;3.57;;;;;;;;;;5013257;28;20208;-75
2022/05/07 04:05:59;;;;;;;6.00;3.80;;;;;;;;;;5012600;28;20213;-78
2022/05/07 04:08:27;;;;;;;6.67;3.90;;;;;;;;;;5027081;28;20744;-78
2022/05/07 04:10:56;;;;;;;7.07;3.67;;;;;;;;;;5005616;28;20552;-77
2022/05/07 04:13:27;;;;;;;6.50;3.90;;;;;;;;;;5005437;28;21030;-80
2022/05/07 04:16:00;;;;;;;6.83;3.83;;;;;;;;;;5028843;28;20210;-80
2022/05/07 04:18:55;;;;;;;6.53;3.90;;;;;;;;;;5020738;28;20206;-74
2022/05/07 04:21:24;;;;;;;7.87;4.13;;;;;;;;;;5004504;28;21026;-75
2022/05/07 04:23:54;;;;;;;5.07;4.00;;;;;;;;;;5024575;28;20256;-79
2022/05/07 04:26:22;;;;;;;6.97;4.40;;;;;;;;;;5006771;28;20297;-79
2022/05/07 04:28:50;;;;;;;6.43;4.10;;;;;;;;;;5006982;28;20285;-77
2022/05/07 04:31:19;;;;;;;8.67;4.20;;;;;;;;;;5021375;28;20243;-81
2022/05/07 04:33:56;;;;;;;9.10;4.57;;;;;;;;;;5018743;28;20218;-76
2022/05/07 04:36:46;;;;;;;5.27;4.20;;;;;;;;;;5021618;28;20275;-77
2022/05/07 04:39:15;;;;;;;6.40;3.90;;;;;;;;;;5028486;28;20190;-78
2022/05/07 04:41:55;;;;;;;6.03;3.80;;;;;;;;;;5011760;28;20724;-77
2022/05/07 04:44:30;;;;;;;5.40;3.57;;;;;;;;;;5007356;28;20855;-76
2022/05/07 04:46:59;;;;;;;6.77;3.50;;;;;;;;;;5034466;28;20189;-78
2022/05/07 04:49:26;;;;;;;7.60;3.30;;;;;;;;;;4999505;28;20660;-78
2022/05/07 04:51:53;;;;;;;4.37;3.30;;;;;;;;;;5024448;28;20226;-77
2022/05/07 04:54:25;;;;;;;5.27;3.60;;;;;;;;;;5025711;28;20199;-81
2022/05/07 04:58:06;;;;;;;6.07;3.80;;;;;;;;;;5015407;28;20262;-75
2022/05/07 05:00:38;;;;;;;6.20;3.50;;;;;;;;;;5005134;28;20214;-78
2022/05/07 05:03:25;;;;;;;5.70;3.40;;;;;;;;;;5031175;28;20207;-76
2022/05/07 05:06:13;;;;;;;4.63;3.03;;;;;;;;;;5028792;28;20243;-76
2022/05/07 05:08:57;;;;;;;5.57;3.30;;;;;;;;;;4996437;28;20234;-75
2022/05/07 05:11:25;;;;;;;4.67;3.10;;;;;;;;;;5000696;28;20247;-78
2022/05/07 05:13:55;;;;;;;4.57;3.13;;;;;;;;;;5017983;28;20294;-76
2022/05/07 05:16:30;;;;;;;4.50;3.03;;;;;;;;;;5026884;28;20221;-75
2022/05/07 05:19:05;;;;;;;5.73;3.50;;;;;;;;;;5010982;28;20226;-73
2022/05/07 05:21:32;;;;;;;5.33;3.30;;;;;;;;;;5025154;28;21386;-74
2022/05/07 05:24:38;;;;;;;3.70;3.10;;;;;;;;;;4968947;28;20287;-73
2022/05/07 05:27:06;;;;;;;6.40;3.40;;;;;;;;;;4963416;28;20312;-73
2022/05/07 05:29:41;;;;;;;3.40;3.10;;;;;;;;;;4984369;28;20218;-73
2022/05/07 05:32:17;;;;;;;5.20;2.90;;;;;;;;;;4968461;28;20228;-73
2022/05/07 05:34:49;;;;;;;5.53;3.23;;;;;;;;;;4960683;28;20675;-73
2022/05/07 05:37:18;;;;;;;6.90;3.40;;;;;;;;;;4982289;28;20245;-73
2022/05/07 05:39:47;;;;;;;8.07;3.70;;;;;;;;;;4983792;28;20204;-81
2022/05/07 05:42:20;;;;;;;5.73;3.30;;;;;;;;;;4970677;28;20195;-81
2022/05/07 05:45:04;;;;;;;4.47;3.00;;;;;;;;;;4963462;28;20205;-75
2022/05/07 05:47:31;;;;;;;4.20;3.20;;;;;;;;;;4956309;28;20206;-76
2022/05/07 05:49:58;;;;;;;6.50;3.03;;;;;;;;;;4979633;28;21034;-75
2022/05/07 05:52:32;;;;;;;4.50;2.90;;;;;;;;;;4973176;28;20227;-74
2022/05/07 05:54:59;;;;;;;6.40;2.90;;;;;;;;;;4976715;28;20942;-74
2022/05/07 05:57:26;;;;;;;5.23;2.73;;;;;;;;;;5023869;28;20204;-75
2022/05/07 05:59:54;;;;;;;3.73;3.07;;;;;;;;;;5026256;28;20188;-74
2022/05/07 06:02:23;;;;;;;3.83;2.67;;;;;;;;;;5009296;28;20199;-75
2022/05/07 06:05:02;;;;;;;6.07;2.63;;;;;;;;;;5005567;28;20196;-74
2022/05/07 06:07:30;;;;;;;4.27;2.97;;;;;;;;;;5002838;28;20558;-74
2022/05/07 06:09:59;;;;;;;4.77;2.60;;;;;;;;;;5026777;28;20182;-75
2022/05/07 06:12:29;;;;;;;6.20;3.07;;;;;;;;;;5006389;28;20228;-75
2022/05/07 06:15:13;;;;;;;4.73;2.63;;;;;;;;;;5024483;28;20542;-74
2022/05/07 06:17:40;;;;;;;4.17;2.47;;;;;;;;;;4996713;28;20246;-75
2022/05/07 06:20:09;;;;;;;5.23;3.00;;;;;;;;;;4995923;28;20678;-74
2022/05/07 06:22:44;;;;;;;4.30;2.50;;;;;;;;;;4997383;28;20295;-74
2022/05/07 06:28:01;;;;;;;3.43;2.50;;;;;;;;;;5002783;28;20191;-73
2022/05/07 06:30:35;;;;;;;3.53;2.67;;;;;;;;;;5010759;28;20200;-74
2022/05/07 06:33:05;;;;;;;5.07;2.80;;;;;;;;;;4993476;28;20595;-75
2022/05/07 06:35:37;;;;;;;7.37;2.93;;;;;;;;;;5012180;28;20302;-74
2022/05/07 06:38:09;;;;;;;4.23;2.30;;;;;;;;;;5008532;28;20564;-74
2022/05/07 06:40:56;;;;;;;4.63;2.67;;;;;;;;;;5024258;28;20179;-74
2022/05/07 06:43:24;;;;;;;4.30;2.30;;;;;;;;;;5028139;28;20238;-74
2022/05/07 06:46:11;;;;;;;3.23;2.60;;;;;;;;;;5016228;28;20203;-74
2022/05/07 06:48:58;;;;;;;3.53;2.40;;;;;;;;;;5004353;28;20193;-74
2022/05/07 06:51:34;;;;;;;2.80;2.50;;;;;;;;;;4983609;28;20212;-73
2022/05/07 06:54:01;;;;;;;3.50;2.30;;;;;;;;;;5025940;28;20188;-74
2022/05/07 06:56:47;;;;;;;4.83;2.50;;;;;;;;;;4998075;28;20180;-74
2022/05/07 06:59:14;;;;;;;5.43;3.20;;;;;;;;;;5025668;28;20203;-73
2022/05/07 07:01:41;;;;;;;3.70;2.57;;;;;;;;;;5030334;28;20938;-74
2022/05/07 07:04:09;;;;;;;3.90;2.67;;;;;;;;;;5030093;28;20202;-73
2022/05/07 07:06:36;;;;;;;3.60;2.87;;;;;;;;;;5026909;28;20230;-74
2022/05/07 07:09:03;;;;;;;7.37;2.67;;;;;;;;;;4989021;28;20318;-74
2022/05/07 07:11:31;;;;;;;5.43;3.27;;;;;;;;;;5027449;28;20242;-72
2022/05/07 07:13:58;;;;;;;8.40;3.50;;;;;;;;;;5029302;28;20677;-74
2022/05/07 07:16:25;;;;;;;3.77;3.03;;;;;;;;;;5028160;28;20298;-73
2022/05/07 07:18:52;;;;;;;4.37;3.07;;;;;;;;;;5029459;28;20180;-72
2022/05/07 07:21:19;;;;;;;3.43;2.80;;;;;;;;;;5029099;28;20709;-72
2022/05/07 07:23:47;;;;;;;4.23;2.67;;;;;;;;;;5029492;28;20295;-73
2022/05/07 07:26:17;;;;;;;3.87;2.60;;;;;;;;;;5011917;28;20199;-72
2022/05/07 07:28:44;;;;;;;4.13;2.37;;;;;;;;;;5027256;28;20250;-73
2022/05/07 07:31:11;;;;;;;3.57;2.60;;;;;;;;;;5028586;28;20202;-73
2022/05/07 07:33:41;;;;;;;5.53;2.40;;;;;;;;;;5001718;28;20290;-72
2022/05/07 07:36:09;;;;;;;3.83;2.50;;;;;;;;;;5010935;28;20584;-73
2022/05/07 07:38:37;;;;;;;3.63;2.60;;;;;;;;;;5012408;28;20940;-73
2022/05/07 07:41:04;;;;;;;5.30;2.83;;;;;;;;;;5028559;28;20194;-73
2022/05/07 07:43:31;;;;;;;5.67;2.57;;;;;;;;;;5028297;28;20208;-72
2022/05/07 07:48:46;;;;;;;2.90;2.60;;;;;;;;;;5027509;28;20199;-72
2022/05/07 07:51:14;;;;;;;4.93;2.80;;;;;;;;;;5026950;28;20199;-72
2022/05/07 07:53:42;;;;;;;3.70;2.50;;;;;;;;;;5027374;28;20246;-72
2022/05/07 07:56:09;;;;;;;5.80;2.63;;;;;;;;;;5010349;28;20199;-72
2022/05/07 07:58:37;;;;;;;4.60;2.50;;;;;;;;;;5027290;28;20233;-73
2022/05/07 08:01:04;;;;;;;2.90;2.60;;;;;;;;;;5009941;28;20203;-73
2022/05/07 08:03:31;;;;;;;5.80;3.03;;;;;;;;;;5006858;28;20195;-72
2022/05/07 08:05:59;;;;;;;4.37;2.80;;;;;;;;;;5028443;28;20187;-72
2022/05/07 08:13:57;;;;;;;3.87;2.70;;;;;;;;;;5008041;28;20541;-73
2022/05/07 08:16:25;;;;;;;4.20;2.70;;;;;;;;;;5006953;28;20192;-72
2022/05/07 08:18:53;;;;;;;3.23;2.63;;;;;;;;;;5022130;28;20195;-73
2022/05/07 08:21:20;;;;;;;5.53;2.60;;;;;;;;;;5046530;28;20202;-73
2022/05/07 08:23:47;;;;;;;3.57;2.70;;;;;;;;;;5024688;28;20262;-73
2022/05/07 08:26:15;;;;;;;3.93;2.57;;;;;;;;;;5047778;28;20657;-72
2022/05/07 08:28:42;;;;;;;3.37;2.60;;;;;;;;;;5021912;28;20195;-73
2022/05/07 08:31:10;;;;;;;4.30;2.90;;;;;;;;;;5028593;28;20183;-73
2022/05/07 08:33:40;;;;;;;7.70;2.80;;;;;;;;;;5026109;28;20227;-73
2022/05/07 08:36:09;;;;;;;3.70;3.00;;;;;;;;;;5024610;28;20699;-73
2022/05/07 08:38:36;;;;;;;5.00;2.80;;;;;;;;;;5010145;28;20223;-72
2022/05/07 08:41:03;;;;;;;5.47;2.83;;;;;;;;;;5008723;28;20196;-73
2022/05/07 08:43:32;;;;;;;3.70;2.97;;;;;;;;;;5019284;28;20191;-73
2022/05/07 08:45:58;;;;;;;4.67;2.87;;;;;;;;;;5025083;28;20183;-72
2022/05/07 08:48:26;;;;;;;3.87;2.70;;;;;;;;;;5008353;28;20200;-73
2022/05/07 08:50:53;;;;;;;3.57;2.53;;;;;;;;;;5018165;28;20191;-72
2022/05/07 08:53:20;;;;;;;4.20;3.00;;;;;;;;;;5027210;28;20265;-72
2022/05/07 08:55:51;;;;;;;4.87;3.03;;;;;;;;;;5009677;28;20206;-69
2022/05/07 08:58:18;;;;;;;5.43;3.27;;;;;;;;;;5026254;28;20194;-73
2022/05/07 09:00:45;;;;;;;3.90;2.60;;;;;;;;;;5006179;28;20207;-73
2022/05/07 09:03:14;;;;;;;5.70;3.57;;;;;;;;;;5010568;28;20226;-73
2022/05/07 09:05:42;;;;;;;5.13;2.87;;;;;;;;;;5010977;28;20195;-73
2022/05/07 09:08:12;;;;;;;3.70;3.07;;;;;;;;;;5026768;28;20217;-73
2022/05/07 09:10:40;;;;;;;4.80;3.33;;;;;;;;;;5009829;28;20249;-73
2022/05/07 09:13:08;;;;;;;4.27;2.70;;;;;;;;;;5027939;28;20242;-73
2022/05/07 09:15:37;;;;;;;7.07;3.20;;;;;;;;;;5008088;28;20280;-73
2022/05/07 09:18:13;;;;;;;6.17;3.10;;;;;;;;;;5001820;28;20274;-73
2022/05/07 09:20:40;;;;;;;5.43;3.10;;;;;;;;;;5026680;28;20293;-73
2022/05/07 09:23:09;;;;;;;4.30;2.60;;;;;;;;;;5025482;28;20199;-73
2022/05/07 09:25:43;;;;;;;5.13;3.30;;;;;;;;;;5025127;28;20594;-73
2022/05/07 09:28:10;;;;;;;5.37;3.30;;;;;;;;;;5008762;28;20198;-72
2022/05/07 09:30:41;;;;;;;3.30;3.00;;;;;;;;;;5004965;28;20294;-72
2022/05/07 09:33:08;;;;;;;5.27;2.77;;;;;;;;;;5025008;28;20594;-72
2022/05/07 09:35:47;;;;;;;6.70;3.43;;;;;;;;;;5010722;28;20226;-72
2022/05/07 09:38:15;;;;;;;3.93;3.27;;;;;;;;;;5019767;28;20571;-71
2022/05/07 09:40:42;;;;;;;5.07;3.40;;;;;;;;;;5017617;28;20191;-71
2022/05/07 09:43:13;;;;;;;3.77;3.07;;;;;;;;;;4991088;28;20778;-70
2022/05/07 09:45:40;;;;;;;5.90;3.13;;;;;;;;;;5021369;28;20304;-71
2022/05/07 09:48:07;;;;;;;5.70;3.17;;;;;;;;;;5023124;28;20195;-69
2022/05/07 09:58:56;;;;;;;4.53;2.60;;;;;;;;;;5027392;28;20203;-69
2022/05/07 10:01:28;;;;;;;5.00;2.03;;;;;;;;;;5026205;28;20873;-69
2022/05/07 10:04:00;;;;;;;5.30;2.30;;;;;;;;;;4993460;28;20283;-69
2022/05/07 10:06:35;;;;;;;6.10;2.50;;;;;;;;;;5029773;28;20200;-69
2022/05/07 10:09:02;;;;;;;6.40;2.27;;;;;;;;;;5024385;28;20659;-69
2022/05/07 10:11:29;;;;;;;3.90;2.43;;;;;;;;;;5027768;28;20265;-69
2022/05/07 10:13:56;;;;;;;3.97;2.60;;;;;;;;;;4991805;28;20691;-70
2022/05/07 10:16:23;;;;;;;3.97;2.10;;;;;;;;;;5021729;28;20276;-69
2022/05/07 10:18:50;;;;;;;6.17;2.50;;;;;;;;;;5022569;28;20310;-69
2022/05/07 10:21:21;;;;;;;5.40;2.90;;;;;;;;;;5012079;28;20230;-69
2022/05/07 10:23:51;;;;;;;5.73;2.43;;;;;;;;;;5029029;28;20198;-66
2022/05/07 10:26:40;;;;;;;4.97;2.10;;;;;;;;;;5030535;28;20247;-59
2022/05/07 10:29:07;;;;;;;10.93;2.90;;;;;;;;;;5029650;28;20568;-61
2022/05/07 10:31:46;;;;;;;4.50;2.10;;;;;;;;;;5029021;28;20936;-60
2022/05/07 10:34:26;;;;;;;5.40;2.33;;;;;;;;;;5009941;28;20224;-60
2022/05/07 10:37:03;;;;;;;2.60;2.00;;;;;;;;;;5029844;28;20214;-59
2022/05/07 10:39:51;;;;;;;3.50;2.40;;;;;;;;;;5028641;28;20187;-60
2022/05/07 10:42:19;;;;;;;3.57;2.23;;;;;;;;;;5030071;28;20187;-60
2022/05/07 10:44:46;;;;;;;7.23;2.57;;;;;;;;;;5012977;28;20179;-60
2022/05/07 10:47:13;;;;;;;3.43;2.40;;;;;;;;;;5012548;28;20849;-60
2022/05/07 10:49:49;;;;;;;4.70;2.20;;;;;;;;;;5028176;28;20223;-62
2022/05/07 10:52:26;;;;;;;2.87;2.30;;;;;;;;;;5028508;28;20417;-58
2022/05/07 10:55:02;;;;;;;4.60;2.57;;;;;;;;;;5030614;28;20194;-59
2022/05/07 10:57:36;;;;;;;3.20;2.70;;;;;;;;;;5029607;28;20551;-58
2022/05/07 11:00:15;;;;;;;8.57;2.93;;;;;;;;;;5029689;28;20197;-58
2022/05/07 11:02:42;;;;;;;9.67;2.40;;;;;;;;;;5027697;28;20520;-59
2022/05/07 11:05:11;;;;;;;3.63;2.23;;;;;;;;;;5028069;28;20199;-59
2022/05/07 11:07:41;;;;;;;9.07;2.77;;;;;;;;;;5027829;28;20191;-60
2022/05/07 11:10:09;;;;;;;3.33;2.40;;;;;;;;;;5029724;28;20237;-59
2022/05/07 11:12:38;;;;;;;6.33;2.23;;;;;;;;;;5027204;28;20300;-59
2022/05/07 11:15:07;;;;;;;6.40;2.27;;;;;;;;;;5029531;28;20184;-59
2022/05/07 11:17:35;;;;;;;3.43;2.30;;;;;;;;;;5028153;28;20218;-59
2022/05/07 11:20:09;;;;;;;4.20;2.63;;;;;;;;;;5029242;28;20195;-59
2022/05/07 11:22:39;;;;;;;2.40;2.10;;;;;;;;;;5026413;28;20238;-59
2022/05/07 11:25:07;;;;;;;2.53;2.20;;;;;;;;;;5027893;28;21135;-58
2022/05/07 11:27:34;;;;;;;5.93;2.70;;;;;;;;;;5007348;28;20690;-59
2022/05/07 11:30:20;;;;;;;5.97;2.53;;;;;;;;;;5008560;28;20274;-61
2022/05/07 11:32:47;;;;;;;3.60;2.63;;;;;;;;;;5019574;28;20246;-59
2022/05/07 11:35:31;;;;;;;7.50;2.67;;;;;;;;;;5021837;28;20654;-59
2022/05/07 11:37:58;;;;;;;13.60;3.27;;;;;;;;;;5008573;28;20246;-58
2022/05/07 11:40:28;;;;;;;7.27;2.70;;;;;;;;;;5022050;28;20192;-58
2022/05/07 11:45:25;;;;;;;6.03;2.60;;;;;;;;;;5028698;28;20266;-59
2022/05/07 11:45:42;;;;;;;4.60;2.70;;;;;;;;;;5026166;28;20270;-59
2022/05/07 11:48:09;;;;;;;7.97;3.40;;;;;;;;;;4992612;28;20249;-59
2022/05/07 11:50:42;;;;;;;9.03;3.07;;;;;;;;;;5028888;28;20191;-60
2022/05/07 11:53:10;;;;;;;3.80;2.53;;;;;;;;;;5024243;28;20314;-59
2022/05/07 11:55:37;;;;;;;4.97;2.37;;;;;;;;;;5024905;28;20192;-59
2022/05/07 11:58:17;;;;;;;3.77;2.20;;;;;;;;;;5027235;28;20242;-60
2022/05/07 12:00:45;;;;;;;6.43;2.90;;;;;;;;;;5010717;28;20226;-60
2022/05/07 12:03:11;;;;;;;3.83;2.80;;;;;;;;;;5027469;28;20245;-60
2022/05/07 12:05:42;;;;;;;5.20;3.00;;;;;;;;;;5028395;28;20184;-60
2022/05/07 12:08:16;;;;;;;8.33;2.93;;;;;;;;;;5010852;28;20192;-60
2022/05/07 12:10:46;;;;;;;6.17;3.10;;;;;;;;;;5027980;28;20561;-60
2022/05/07 12:13:13;;;;;;;6.60;3.00;;;;;;;;;;5028416;28;20621;-59
2022/05/07 12:18:37;;;;;;;5.00;3.17;;;;;;;;;;5013316;28;20720;-60
2022/05/07 12:21:05;;;;;;;4.10;3.00;;;;;;;;;;5028297;28;20184;-59
2022/05/07 12:31:50;;;;;;;6.20;3.40;;;;;;;;;;5027784;28;20197;-59
2022/05/07 12:34:17;;;;;;;7.67;3.10;;;;;;;;;;5027964;28;20211;-60
2022/05/07 12:36:45;;;;;;;8.23;3.90;;;;;;;;;;5027529;28;20686;-60
2022/05/07 12:39:12;;;;;;;5.37;3.30;;;;;;;;;;5027673;28;20196;-60
2022/05/07 12:42:03;;;;;;;6.20;2.97;;;;;;;;;;5026996;28;20178;-60
2022/05/07 12:44:30;;;;;;;5.27;2.50;;;;;;;;;;4994809;28;20194;-59
2022/05/07 12:46:57;;;;;;;5.47;3.27;;;;;;;;;;5027707;28;20230;-60
2022/05/07 12:49:24;;;;;;;7.20;2.90;;;;;;;;;;5027029;28;20717;-59
2022/05/07 12:51:53;;;;;;;7.73;3.00;;;;;;;;;;5027160;28;20246;-60
2022/05/07 12:54:21;;;;;;;5.43;3.10;;;;;;;;;;5026974;28;20219;-59
2022/05/07 12:56:49;;;;;;;4.13;2.80;;;;;;;;;;5027722;28;20524;-59
2022/05/07 12:59:16;;;;;;;6.90;3.70;;;;;;;;;;5025764;28;20270;-60
2022/05/07 13:01:43;;;;;;;6.50;3.63;;;;;;;;;;5027343;28;20198;-59
2022/05/07 13:04:10;;;;;;;5.73;3.30;;;;;;;;;;5026327;28;20230;-59
2022/05/07 13:06:37;;;;;;;27.00;18.67;;;;;;;;;;5027440;28;20263;-59
2022/05/07 13:09:04;;;;;;;9.27;5.23;;;;;;;;;;5027698;28;20207;-58
2022/05/07 13:11:32;;;;;;;5.20;3.57;;;;;;;;;;5027488;28;20203;-59
2022/05/07 13:13:59;;;;;;;4.00;2.90;;;;;;;;;;5027524;28;20922;-59
2022/05/07 13:16:26;;;;;;;5.10;3.10;;;;;;;;;;5013214;28;20288;-58
2022/05/07 13:18:53;;;;;;;6.90;3.43;;;;;;;;;;5027405;28;20188;-58
2022/05/07 13:21:20;;;;;;;8.43;4.30;;;;;;;;;;5027053;28;20245;-57
2022/05/07 13:23:46;;;;;;;6.10;3.80;;;;;;;;;;5030835;28;20947;-59
2022/05/07 13:26:32;;;;;;;14.70;7.77;;;;;;;;;;5016122;28;20564;-59
2022/05/07 13:29:15;;;;;;;16.07;8.50;;;;;;;;;;5031150;28;20187;-60
2022/05/07 13:31:42;;;;;;;11.13;5.23;;;;;;;;;;5012782;28;20194;-59
2022/05/07 13:34:09;;;;;;;5.97;3.63;;;;;;;;;;5024060;28;20223;-60
2022/05/07 13:36:36;;;;;;;13.77;5.80;;;;;;;;;;5029522;28;20830;-60
2022/05/07 13:39:04;;;;;;;15.80;8.50;;;;;;;;;;5031131;28;21057;-59
2022/05/07 13:41:31;;;;;;;7.27;4.13;;;;;;;;;;5013125;28;20278;-59
2022/05/07 13:43:57;;;;;;;11.27;5.97;;;;;;;;;;5029721;28;20191;-59
2022/05/07 13:46:24;;;;;;;15.83;9.57;;;;;;;;;;5030752;28;20176;-59
2022/05/07 13:48:53;;;;;;;7.53;4.57;;;;;;;;;;5031007;28;20265;-60
2022/05/07 13:51:21;;;;;;;32.43;20.67;;;;;;;;;;5030605;28;20215;-59
2022/05/07 13:53:48;;;;;;;11.47;6.17;;;;;;;;;;5029208;28;20211;-60
2022/05/07 13:56:15;;;;;;;23.00;11.87;;;;;;;;;;5030733;28;20246;-60
2022/05/07 13:58:41;;;;;;;16.83;10.43;;;;;;;;;;5030516;28;20274;-60
2022/05/07 14:01:09;;;;;;;11.40;5.23;;;;;;;;;;5030821;28;20195;-59
2022/05/07 14:03:36;;;;;;;16.53;7.70;;;;;;;;;;5018294;28;20231;-59
2022/05/07 14:06:04;;;;;;;21.77;12.40;;;;;;;;;;5027508;28;20266;-58
2022/05/07 14:08:31;;;;;;;15.00;8.10;;;;;;;;;;5030322;28;20184;-60
2022/05/07 14:10:58;;;;;;;13.30;5.50;;;;;;;;;;5030653;28;20267;-59
2022/05/07 14:13:25;;;;;;;7.90;4.40;;;;;;;;;;5030479;28;20653;-59
2022/05/07 14:15:51;;;;;;;7.23;4.10;;;;;;;;;;5012989;28;20191;-60
2022/05/07 14:18:18;;;;;;;7.77;4.37;;;;;;;;;;5028428;28;20708;-60
2022/05/07 14:20:48;;;;;;;7.20;4.03;;;;;;;;;;5027538;28;20535;-68
2022/05/07 14:23:16;;;;;;;10.80;4.47;;;;;;;;;;5029669;28;20187;-64
2022/05/07 14:25:43;;;;;;;6.13;4.03;;;;;;;;;;5012554;28;20202;-66
2022/05/07 14:28:30;;;;;;;6.47;3.43;;;;;;;;;;5014076;28;20211;-64
2022/05/07 14:30:57;;;;;;;6.33;3.90;;;;;;;;;;5030181;28;20708;-63
2022/05/07 14:33:25;;;;;;;6.20;3.53;;;;;;;;;;5029436;28;20220;-64
2022/05/07 14:35:52;;;;;;;6.67;3.47;;;;;;;;;;5029365;28;20199;-64
2022/05/07 14:38:20;;;;;;;11.90;3.60;;;;;;;;;;5012121;28;20726;-63
2022/05/07 14:40:46;;;;;;;6.33;3.07;;;;;;;;;;5040493;28;20971;-63
2022/05/07 14:43:14;;;;;;;5.97;3.40;;;;;;;;;;5029809;28;20287;-63
2022/05/07 14:45:41;;;;;;;6.53;3.73;;;;;;;;;;5029731;28;20198;-63
2022/05/07 14:48:09;;;;;;;7.17;3.00;;;;;;;;;;5029676;28;20202;-63
2022/05/07 14:50:37;;;;;;;5.67;2.77;;;;;;;;;;5029851;28;20233;-62
2022/05/07 14:53:04;;;;;;;7.00;2.70;;;;;;;;;;5029552;28;20184;-63
2022/05/07 14:55:31;;;;;;;7.83;3.70;;;;;;;;;;5029516;28;20199;-63
2022/05/07 14:57:58;;;;;;;6.63;3.30;;;;;;;;;;5028446;28;20266;-63
2022/05/07 15:00:44;;;;;;;9.57;5.00;;;;;;;;;;5015502;28;20190;-63
2022/05/07 15:03:13;;;;;;;6.07;3.43;;;;;;;;;;5018324;28;20230;-63
2022/05/07 15:05:59;;;;;;;7.53;3.13;;;;;;;;;;5028739;28;20180;-63
2022/05/07 15:11:12;;;;;;;7.40;4.13;;;;;;;;;;5011701;28;20195;-63
2022/05/07 15:13:39;;;;;;;6.73;3.37;;;;;;;;;;5029475;28;20313;-63
2022/05/07 15:16:07;;;;;;;12.43;5.20;;;;;;;;;;5028918;28;21048;-63
2022/05/07 15:18:34;;;;;;;4.07;3.13;;;;;;;;;;5028419;28;20195;-63
2022/05/07 15:21:05;;;;;;;6.70;4.70;;;;;;;;;;5029129;28;20606;-63
2022/05/07 15:23:32;;;;;;;40.83;4.67;;;;;;;;;;5029126;28;20192;-62
2022/05/07 15:26:00;;;;;;;4.57;2.53;;;;;;;;;;5029180;28;20196;-62
2022/05/07 15:28:27;;;;;;;6.07;2.37;;;;;;;;;;5012692;28;20184;-62
2022/05/07 15:30:53;;;;;;;7.93;2.57;;;;;;;;;;5029133;28;20520;-62
2022/05/07 15:38:51;;;;;;;6.17;2.90;;;;;;;;;;5019367;28;20188;-63
2022/05/07 15:41:18;;;;;;;4.63;2.03;;;;;;;;;;5028283;28;20278;-63
2022/05/07 15:43:46;;;;;;;4.30;1.60;;;;;;;;;;5028689;28;20200;-63
2022/05/07 15:46:16;;;;;;;4.10;2.33;;;;;;;;;;5027470;28;20195;-62
2022/05/07 15:48:46;;;;;;;4.63;3.40;;;;;;;;;;5028522;28;20191;-61
2022/05/07 15:51:15;;;;;;;7.27;2.87;;;;;;;;;;5028478;28;20214;-67
2022/05/07 15:53:42;;;;;;;6.07;1.80;;;;;;;;;;5020711;28;20231;-68
2022/05/07 15:56:09;;;;;;;3.37;2.00;;;;;;;;;;5015597;28;20200;-67
2022/05/07 15:58:36;;;;;;;3.90;2.10;;;;;;;;;;5028315;28;20214;-67
2022/05/07 16:01:04;;;;;;;3.23;1.90;;;;;;;;;;5028247;28;20547;-67
2022/05/07 16:03:32;;;;;;;4.80;1.70;;;;;;;;;;5011423;28;20210;-67
2022/05/07 16:05:59;;;;;;;3.07;1.97;;;;;;;;;;4999928;28;20235;-67
2022/05/07 16:08:28;;;;;;;2.73;1.57;;;;;;;;;;5012068;28;20187;-68
2022/05/07 16:10:57;;;;;;;3.33;1.50;;;;;;;;;;5028501;28;20192;-68
2022/05/07 16:13:24;;;;;;;2.43;2.00;;;;;;;;;;5020675;28;20274;-68
2022/05/07 16:15:58;;;;;;;3.63;2.40;;;;;;;;;;5028152;28;20261;-67
2022/05/07 16:18:25;;;;;;;5.80;3.10;;;;;;;;;;5010695;28;20179;-68
2022/05/07 16:20:51;;;;;;;7.50;4.60;;;;;;;;;;5010297;28;20196;-68
2022/05/07 16:26:19;;;;;;;4.60;2.17;;;;;;;;;;5027676;28;20290;-68
2022/05/07 16:28:46;;;;;;;6.97;4.00;;;;;;;;;;5004383;28;20191;-68
2022/05/07 16:31:13;;;;;;;3.07;2.13;;;;;;;;;;5026247;28;20221;-69
2022/05/07 16:33:40;;;;;;;3.97;2.40;;;;;;;;;;5029498;28;20242;-67
2022/05/07 16:36:07;;;;;;;3.43;2.03;;;;;;;;;;5027909;28;20279;-67
2022/05/07 16:38:34;;;;;;;3.43;2.40;;;;;;;;;;5024891;28;20249;-68
2022/05/07 16:41:01;;;;;;;5.63;3.30;;;;;;;;;;5025155;28;20202;-68
2022/05/07 16:43:28;;;;;;;6.23;4.13;;;;;;;;;;5028143;28;20191;-67
2022/05/07 16:45:55;;;;;;;3.40;2.10;;;;;;;;;;5028990;28;20563;-68
2022/05/07 16:48:22;;;;;;;3.53;1.93;;;;;;;;;;5040868;28;20620;-68
2022/05/07 16:50:51;;;;;;;5.93;3.40;;;;;;;;;;5010117;28;20183;-68
2022/05/07 16:53:18;;;;;;;5.20;2.87;;;;;;;;;;5027440;28;20204;-67
2022/05/07 16:55:45;;;;;;;3.53;2.20;;;;;;;;;;5010159;28;20264;-67
2022/05/07 16:58:12;;;;;;;3.93;2.37;;;;;;;;;;5026990;28;20237;-68
2022/05/07 17:00:38;;;;;;;4.63;2.10;;;;;;;;;;5027481;28;20175;-67
2022/05/07 17:03:05;;;;;;;5.17;2.43;;;;;;;;;;5027958;28;20191;-67
2022/05/07 17:05:32;;;;;;;6.67;2.40;;;;;;;;;;5026329;28;20655;-68
2022/05/07 17:07:59;;;;;;;4.10;1.87;;;;;;;;;;5000806;28;20262;-67
2022/05/07 17:10:26;;;;;;;7.27;3.90;;;;;;;;;;5027046;28;20187;-67